sensor_id;sensor_type;location;lat;lon;timestamp;temperature;humidity
19813;DHT22;10066;48.108;11.448;2023-01-04T00:01:03;3.40;99.90
19813;DHT22;10066;48.108;11.448;2023-01-04T00:03:30;3.40;99.90
19813;DHT22;10066;48.108;11.448;2023-01-04T00:05:59;3.30;99.90
19813;DHT22;10066;48.108;11.448;2023-01-04T00:08:27;3.30;99.90
19813;DHT22;10066;48.108;11.448;2023-01-04T00:10:59;3.20;99.90
19813;DHT22;10066;48.108;11.448;2023-01-04T00:13:26;3.20;99.90
19813;DHT22;10066;48.108;11.448;2023-01-04T00:15:53;3.20;99.90
19813;DHT22;10066;48.108;11.448;2023-01-04T00:18:21;3.10;99.90
19813;DHT22;10066;48.108;11.448;2023-01-04T00:20:48;3.10;99.90
19813;DHT22;10066;48.108;11.448;2023-01-04T00:23:16;3.10;99.90
19813;DHT22;10066;48.108;11.448;2023-01-04T00:25:44;3.00;99.90
19813;DHT22;10066;48.108;11.448;2023-01-04T00:28:11;3.00;99.90
19813;DHT22;10066;48.108;11.448;2023-01-04T00:30:42;2.90;99.90
19813;DHT22;10066;48.108;11.448;2023-01-04T00:33:09;3.00;99.90
19813;DHT22;10066;48.108;11.448;2023-01-04T00:35:36;2.90;99.90
19813;DHT22;10066;48.108;11.448;2023-01-04T00:38:03;2.90;99.90
19813;DHT22;10066;48.108;11.448;2023-01-04T00:40:33;2.90;99.90
19813;DHT22;10066;48.108;11.448;2023-01-04T00:43:00;2.90;99.90
19813;DHT22;10066;48.108;11.448;2023-01-04T00:45:27;2.80;99.90
19813;DHT22;10066;48.108;11.448;2023-01-04T00:50:21;2.80;99.90
19813;DHT22;10066;48.108;11.448;2023-01-04T00:52:48;2.80;99.90
19813;DHT22;10066;48.108;11.448;2023-01-04T00:55:15;2.70;99.90
19813;DHT22;10066;48.108;11.448;2023-01-04T00:57:44;2.70;99.90
19813;DHT22;10066;48.108;11.448;2023-01-04T01:00:12;2.70;99.90
19813;DHT22;10066;48.108;11.448;2023-01-04T01:02:39;2.60;99.90
19813;DHT22;10066;48.108;11.448;2023-01-04T01:05:07;2.60;99.90
19813;DHT22;10066;48.108;11.448;2023-01-04T01:07:37;2.50;99.90
19813;DHT22;10066;48.108;11.448;2023-01-04T01:10:05;2.50;99.90
19813;DHT22;10066;48.108;11.448;2023-01-04T01:12:32;2.50;99.90
19813;DHT22;10066;48.108;11.448;2023-01-04T01:15:00;2.50;99.90
19813;DHT22;10066;48.108;11.448;2023-01-04T01:17:27;2.50;99.90
19813;DHT22;10066;48.108;11.448;2023-01-04T01:19:54;2.40;99.90
19813;DHT22;10066;48.108;11.448;2023-01-04T01:22:21;2.40;99.90
19813;DHT22;10066;48.108;11.448;2023-01-04T01:24:47;2.40;99.90
19813;DHT22;10066;48.108;11.448;2023-01-04T01:27:14;2.30;99.90
19813;DHT22;10066;48.108;11.448;2023-01-04T01:29:41;2.30;99.90
19813;DHT22;10066;48.108;11.448;2023-01-04T01:32:10;2.30;99.90
19813;DHT22;10066;48.108;11.448;2023-01-04T01:34:37;2.20;99.90
19813;DHT22;10066;48.108;11.448;2023-01-04T01:37:04;2.10;99.90
19813;DHT22;10066;48.108;11.448;2023-01-04T01:39:31;2.10;99.90
19813;DHT22;10066;48.108;11.448;2023-01-04T01:41:57;2.10;99.90
19813;DHT22;10066;48.108;11.448;2023-01-04T01:44:57;2.10;99.90
19813;DHT22;10066;48.108;11.448;2023-01-04T01:47:29;2.20;99.90
19813;DHT22;10066;48.108;11.448;2023-01-04T01:49:59;2.10;99.90
19813;DHT22;10066;48.108;11.448;2023-01-04T01:52:30;2.20;99.90
19813;DHT22;10066;48.108;11.448;2023-01-04T01:55:01;2.20;99.90
19813;DHT22;10066;48.108;11.448;2023-01-04T01:57:33;2.20;99.90
19813;DHT22;10066;48.108;11.448;2023-01-04T02:00:06;2.20;99.90
19813;DHT22;10066;48.108;11.448;2023-01-04T02:02:37;2.20;99.90
19813;DHT22;10066;48.108;11.448;2023-01-04T02:05:05;2.10;99.90
19813;DHT22;10066;48.108;11.448;2023-01-04T02:07:34;2.10;99.90
19813;DHT22;10066;48.108;11.448;2023-01-04T02:10:01;2.10;99.90
19813;DHT22;10066;48.108;11.448;2023-01-04T02:12:29;2.10;99.90
19813;DHT22;10066;48.108;11.448;2023-01-04T02:14:56;2.20;99.90
19813;DHT22;10066;48.108;11.448;2023-01-04T02:17:32;2.30;99.90
19813;DHT22;10066;48.108;11.448;2023-01-04T02:20:33;2.30;99.90
19813;DHT22;10066;48.108;11.448;2023-01-04T02:26:40;2.30;99.90
19813;DHT22;10066;48.108;11.448;2023-01-04T02:32:33;2.30;99.90
19813;DHT22;10066;48.108;11.448;2023-01-04T02:35:09;2.30;99.90
19813;DHT22;10066;48.108;11.448;2023-01-04T02:37:46;2.30;99.90
19813;DHT22;10066;48.108;11.448;2023-01-04T02:40:20;2.30;99.90
19813;DHT22;10066;48.108;11.448;2023-01-04T02:42:55;2.40;99.90
19813;DHT22;10066;48.108;11.448;2023-01-04T02:45:53;2.40;99.90
19813;DHT22;10066;48.108;11.448;2023-01-04T02:48:23;2.40;99.90
19813;DHT22;10066;48.108;11.448;2023-01-04T02:51:03;2.40;99.90
19813;DHT22;10066;48.108;11.448;2023-01-04T02:53:34;2.40;99.90
19813;DHT22;10066;48.108;11.448;2023-01-04T02:56:10;2.40;99.90
19813;DHT22;10066;48.108;11.448;2023-01-04T02:59:00;2.40;99.90
19813;DHT22;10066;48.108;11.448;2023-01-04T03:01:37;2.40;99.90
19813;DHT22;10066;48.108;11.448;2023-01-04T03:04:43;2.40;99.90
19813;DHT22;10066;48.108;11.448;2023-01-04T03:07:36;2.50;99.90
19813;DHT22;10066;48.108;11.448;2023-01-04T03:10:13;2.50;99.90
19813;DHT22;10066;48.108;11.448;2023-01-04T03:12:45;2.60;99.90
19813;DHT22;10066;48.108;11.448;2023-01-04T03:15:16;2.70;99.90
19813;DHT22;10066;48.108;11.448;2023-01-04T03:17:48;2.80;99.90
19813;DHT22;10066;48.108;11.448;2023-01-04T03:20:28;2.90;99.90
19813;DHT22;10066;48.108;11.448;2023-01-04T03:22:58;2.90;99.90
19813;DHT22;10066;48.108;11.448;2023-01-04T03:25:48;3.00;99.90
19813;DHT22;10066;48.108;11.448;2023-01-04T03:28:34;3.10;99.90
19813;DHT22;10066;48.108;11.448;2023-01-04T03:31:23;3.20;99.90
19813;DHT22;10066;48.108;11.448;2023-01-04T03:34:08;3.20;99.90
19813;DHT22;10066;48.108;11.448;2023-01-04T03:37:06;3.30;99.90
19813;DHT22;10066;48.108;11.448;2023-01-04T03:39:43;3.40;99.90
19813;DHT22;10066;48.108;11.448;2023-01-04T03:42:37;3.40;99.90
19813;DHT22;10066;48.108;11.448;2023-01-04T03:45:25;3.40;99.90
19813;DHT22;10066;48.108;11.448;2023-01-04T03:48:14;3.50;99.90
19813;DHT22;10066;48.108;11.448;2023-01-04T03:51:09;3.50;99.90
19813;DHT22;10066;48.108;11.448;2023-01-04T03:53:44;3.50;99.90
19813;DHT22;10066;48.108;11.448;2023-01-04T03:56:14;3.50;99.90
19813;DHT22;10066;48.108;11.448;2023-01-04T03:58:42;3.60;99.90
19813;DHT22;10066;48.108;11.448;2023-01-04T04:01:09;3.50;99.90
19813;DHT22;10066;48.108;11.448;2023-01-04T04:03:36;3.50;99.90
19813;DHT22;10066;48.108;11.448;2023-01-04T04:06:20;3.40;99.90
19813;DHT22;10066;48.108;11.448;2023-01-04T04:09:06;3.40;99.90
19813;DHT22;10066;48.108;11.448;2023-01-04T04:11:32;3.30;99.90
19813;DHT22;10066;48.108;11.448;2023-01-04T04:13:59;3.20;99.90
19813;DHT22;10066;48.108;11.448;2023-01-04T04:16:27;3.20;99.90
19813;DHT22;10066;48.108;11.448;2023-01-04T04:18:54;3.10;99.90
19813;DHT22;10066;48.108;11.448;2023-01-04T04:21:21;3.00;99.90
19813;DHT22;10066;48.108;11.448;2023-01-04T04:23:48;2.90;99.90
19813;DHT22;10066;48.108;11.448;2023-01-04T04:26:17;2.80;99.90
19813;DHT22;10066;48.108;11.448;2023-01-04T04:28:43;2.70;99.90
19813;DHT22;10066;48.108;11.448;2023-01-04T04:31:11;2.70;99.90
19813;DHT22;10066;48.108;11.448;2023-01-04T04:33:38;2.60;99.90
19813;DHT22;10066;48.108;11.448;2023-01-04T04:36:06;2.50;99.90
19813;DHT22;10066;48.108;11.448;2023-01-04T04:38:33;2.50;99.90
19813;DHT22;10066;48.108;11.448;2023-01-04T04:41:05;2.40;99.90
19813;DHT22;10066;48.108;11.448;2023-01-04T04:43:51;2.40;99.90
19813;DHT22;10066;48.108;11.448;2023-01-04T04:46:18;2.30;99.90
19813;DHT22;10066;48.108;11.448;2023-01-04T04:48:45;2.30;99.90
19813;DHT22;10066;48.108;11.448;2023-01-04T04:51:12;2.30;99.90
19813;DHT22;10066;48.108;11.448;2023-01-04T04:53:39;2.20;99.90
19813;DHT22;10066;48.108;11.448;2023-01-04T04:56:06;2.20;99.90
19813;DHT22;10066;48.108;11.448;2023-01-04T04:58:33;2.20;99.90
19813;DHT22;10066;48.108;11.448;2023-01-04T05:01:02;2.10;99.90
19813;DHT22;10066;48.108;11.448;2023-01-04T05:03:29;2.10;99.90
19813;DHT22;10066;48.108;11.448;2023-01-04T05:05:56;2.10;99.90
19813;DHT22;10066;48.108;11.448;2023-01-04T05:08:23;2.00;99.90
19813;DHT22;10066;48.108;11.448;2023-01-04T05:10:50;2.00;99.90
19813;DHT22;10066;48.108;11.448;2023-01-04T05:13:17;2.00;99.90
19813;DHT22;10066;48.108;11.448;2023-01-04T05:15:45;1.90;99.90
19813;DHT22;10066;48.108;11.448;2023-01-04T05:18:15;1.90;99.90
19813;DHT22;10066;48.108;11.448;2023-01-04T05:20:43;1.90;99.90
19813;DHT22;10066;48.108;11.448;2023-01-04T05:23:12;1.90;99.90
19813;DHT22;10066;48.108;11.448;2023-01-04T05:25:39;1.90;99.90
19813;DHT22;10066;48.108;11.448;2023-01-04T05:28:09;1.90;99.90
19813;DHT22;10066;48.108;11.448;2023-01-04T05:30:36;1.90;99.90
19813;DHT22;10066;48.108;11.448;2023-01-04T05:33:22;1.80;99.90
19813;DHT22;10066;48.108;11.448;2023-01-04T05:35:49;1.80;99.90
19813;DHT22;10066;48.108;11.448;2023-01-04T05:38:17;1.80;99.90
19813;DHT22;10066;48.108;11.448;2023-01-04T05:40:44;1.80;99.90
19813;DHT22;10066;48.108;11.448;2023-01-04T05:43:11;1.80;99.90
19813;DHT22;10066;48.108;11.448;2023-01-04T05:45:39;1.80;99.90
19813;DHT22;10066;48.108;11.448;2023-01-04T05:48:06;1.80;99.90
19813;DHT22;10066;48.108;11.448;2023-01-04T05:50:34;1.80;99.90
19813;DHT22;10066;48.108;11.448;2023-01-04T05:53:01;1.80;99.90
19813;DHT22;10066;48.108;11.448;2023-01-04T05:55:28;1.80;99.90
19813;DHT22;10066;48.108;11.448;2023-01-04T05:57:55;1.80;99.90
19813;DHT22;10066;48.108;11.448;2023-01-04T06:00:23;1.80;99.90
19813;DHT22;10066;48.108;11.448;2023-01-04T06:02:49;1.80;99.90
19813;DHT22;10066;48.108;11.448;2023-01-04T06:05:20;1.80;99.90
19813;DHT22;10066;48.108;11.448;2023-01-04T06:07:49;1.90;99.90
19813;DHT22;10066;48.108;11.448;2023-01-04T06:10:16;2.00;99.90
19813;DHT22;10066;48.108;11.448;2023-01-04T06:12:44;2.10;99.90
19813;DHT22;10066;48.108;11.448;2023-01-04T06:15:12;2.30;99.90
19813;DHT22;10066;48.108;11.448;2023-01-04T06:17:39;2.40;99.90
19813;DHT22;10066;48.108;11.448;2023-01-04T06:20:08;2.50;99.90
19813;DHT22;10066;48.108;11.448;2023-01-04T06:22:35;2.50;99.90
19813;DHT22;10066;48.108;11.448;2023-01-04T06:25:04;2.60;99.90
19813;DHT22;10066;48.108;11.448;2023-01-04T06:27:31;2.70;99.90
19813;DHT22;10066;48.108;11.448;2023-01-04T06:29:58;2.70;99.90
19813;DHT22;10066;48.108;11.448;2023-01-04T06:32:25;2.80;99.90
19813;DHT22;10066;48.108;11.448;2023-01-04T06:34:52;2.80;99.90
19813;DHT22;10066;48.108;11.448;2023-01-04T06:37:19;2.90;99.90
19813;DHT22;10066;48.108;11.448;2023-01-04T06:39:46;3.00;99.90
19813;DHT22;10066;48.108;11.448;2023-01-04T06:42:14;3.10;99.90
19813;DHT22;10066;48.108;11.448;2023-01-04T06:44:58;3.20;99.90
19813;DHT22;10066;48.108;11.448;2023-01-04T06:47:25;3.30;99.90
19813;DHT22;10066;48.108;11.448;2023-01-04T06:49:52;3.30;99.90
19813;DHT22;10066;48.108;11.448;2023-01-04T06:52:19;3.40;99.90
19813;DHT22;10066;48.108;11.448;2023-01-04T06:54:46;3.50;99.90
19813;DHT22;10066;48.108;11.448;2023-01-04T06:57:14;3.50;99.90
19813;DHT22;10066;48.108;11.448;2023-01-04T06:59:42;3.50;99.90
19813;DHT22;10066;48.108;11.448;2023-01-04T07:02:12;3.50;99.90
19813;DHT22;10066;48.108;11.448;2023-01-04T07:04:40;3.50;99.90
19813;DHT22;10066;48.108;11.448;2023-01-04T07:07:07;3.40;99.90
19813;DHT22;10066;48.108;11.448;2023-01-04T07:09:34;3.30;99.90
19813;DHT22;10066;48.108;11.448;2023-01-04T07:12:01;3.20;99.90
19813;DHT22;10066;48.108;11.448;2023-01-04T07:14:29;3.10;99.90
19813;DHT22;10066;48.108;11.448;2023-01-04T07:16:56;3.10;99.90
19813;DHT22;10066;48.108;11.448;2023-01-04T07:19:23;3.00;99.90
19813;DHT22;10066;48.108;11.448;2023-01-04T07:21:50;3.00;99.90
19813;DHT22;10066;48.108;11.448;2023-01-04T07:24:18;2.90;99.90
19813;DHT22;10066;48.108;11.448;2023-01-04T07:26:45;2.90;99.90
19813;DHT22;10066;48.108;11.448;2023-01-04T07:29:12;2.90;99.90
19813;DHT22;10066;48.108;11.448;2023-01-04T07:31:42;2.90;99.90
19813;DHT22;10066;48.108;11.448;2023-01-04T07:34:09;2.80;99.90
19813;DHT22;10066;48.108;11.448;2023-01-04T07:36:36;2.80;99.90
19813;DHT22;10066;48.108;11.448;2023-01-04T07:39:04;2.80;99.90
19813;DHT22;10066;48.108;11.448;2023-01-04T07:41:31;2.80;99.90
19813;DHT22;10066;48.108;11.448;2023-01-04T07:43:58;2.80;99.90
19813;DHT22;10066;48.108;11.448;2023-01-04T07:46:26;2.80;99.90
19813;DHT22;10066;48.108;11.448;2023-01-04T07:48:54;2.80;99.90
19813;DHT22;10066;48.108;11.448;2023-01-04T07:51:22;2.80;99.90
19813;DHT22;10066;48.108;11.448;2023-01-04T07:53:52;2.80;99.90
19813;DHT22;10066;48.108;11.448;2023-01-04T07:56:20;2.90;99.90
19813;DHT22;10066;48.108;11.448;2023-01-04T07:58:46;2.90;99.90
19813;DHT22;10066;48.108;11.448;2023-01-04T08:01:16;2.90;99.90
19813;DHT22;10066;48.108;11.448;2023-01-04T08:03:44;3.00;99.90
19813;DHT22;10066;48.108;11.448;2023-01-04T08:06:14;3.00;99.90
19813;DHT22;10066;48.108;11.448;2023-01-04T08:08:41;3.00;99.90
19813;DHT22;10066;48.108;11.448;2023-01-04T08:11:10;3.10;99.90
19813;DHT22;10066;48.108;11.448;2023-01-04T08:13:38;3.20;99.90
19813;DHT22;10066;48.108;11.448;2023-01-04T08:16:05;3.20;99.90
19813;DHT22;10066;48.108;11.448;2023-01-04T08:18:32;3.30;99.90
19813;DHT22;10066;48.108;11.448;2023-01-04T08:21:03;3.40;99.90
19813;DHT22;10066;48.108;11.448;2023-01-04T08:23:32;3.40;99.90
19813;DHT22;10066;48.108;11.448;2023-01-04T08:26:03;3.50;99.90
19813;DHT22;10066;48.108;11.448;2023-01-04T08:28:31;3.50;99.90
19813;DHT22;10066;48.108;11.448;2023-01-04T08:31:04;3.60;99.90
19813;DHT22;10066;48.108;11.448;2023-01-04T08:33:31;3.70;99.90
19813;DHT22;10066;48.108;11.448;2023-01-04T08:36:07;3.80;99.90
19813;DHT22;10066;48.108;11.448;2023-01-04T08:38:35;3.80;99.90
19813;DHT22;10066;48.108;11.448;2023-01-04T08:41:02;3.90;99.90
19813;DHT22;10066;48.108;11.448;2023-01-04T08:43:29;4.00;99.90
19813;DHT22;10066;48.108;11.448;2023-01-04T08:45:56;4.10;99.90
19813;DHT22;10066;48.108;11.448;2023-01-04T08:48:23;4.10;99.90
19813;DHT22;10066;48.108;11.448;2023-01-04T08:50:50;4.30;99.90
19813;DHT22;10066;48.108;11.448;2023-01-04T08:53:17;4.30;99.90
19813;DHT22;10066;48.108;11.448;2023-01-04T08:55:49;4.50;99.90
19813;DHT22;10066;48.108;11.448;2023-01-04T08:58:17;4.70;99.90
19813;DHT22;10066;48.108;11.448;2023-01-04T09:00:44;4.80;99.90
19813;DHT22;10066;48.108;11.448;2023-01-04T09:03:12;4.90;99.90
19813;DHT22;10066;48.108;11.448;2023-01-04T09:05:39;5.10;99.90
19813;DHT22;10066;48.108;11.448;2023-01-04T09:08:06;5.20;99.90
19813;DHT22;10066;48.108;11.448;2023-01-04T09:10:36;5.20;99.90
19813;DHT22;10066;48.108;11.448;2023-01-04T09:13:04;5.30;99.90
19813;DHT22;10066;48.108;11.448;2023-01-04T09:15:32;5.30;99.90
19813;DHT22;10066;48.108;11.448;2023-01-04T09:17:59;5.40;99.90
19813;DHT22;10066;48.108;11.448;2023-01-04T09:20:28;5.40;99.90
19813;DHT22;10066;48.108;11.448;2023-01-04T09:22:56;5.50;99.90
19813;DHT22;10066;48.108;11.448;2023-01-04T09:25:23;5.60;99.90
19813;DHT22;10066;48.108;11.448;2023-01-04T09:27:50;5.70;99.90
19813;DHT22;10066;48.108;11.448;2023-01-04T09:30:18;5.70;99.90
19813;DHT22;10066;48.108;11.448;2023-01-04T09:32:45;5.90;99.90
19813;DHT22;10066;48.108;11.448;2023-01-04T09:35:12;6.00;99.90
19813;DHT22;10066;48.108;11.448;2023-01-04T09:37:39;6.10;99.90
19813;DHT22;10066;48.108;11.448;2023-01-04T09:40:10;6.10;99.90
19813;DHT22;10066;48.108;11.448;2023-01-04T09:42:44;6.30;99.90
19813;DHT22;10066;48.108;11.448;2023-01-04T09:45:17;6.40;99.90
19813;DHT22;10066;48.108;11.448;2023-01-04T09:47:49;6.60;99.90
19813;DHT22;10066;48.108;11.448;2023-01-04T09:50:21;6.70;99.90
19813;DHT22;10066;48.108;11.448;2023-01-04T09:52:55;6.90;99.90
19813;DHT22;10066;48.108;11.448;2023-01-04T09:55:27;7.10;99.90
19813;DHT22;10066;48.108;11.448;2023-01-04T09:57:59;7.20;99.90
19813;DHT22;10066;48.108;11.448;2023-01-04T10:00:30;7.40;99.90
19813;DHT22;10066;48.108;11.448;2023-01-04T10:03:04;7.50;99.90
19813;DHT22;10066;48.108;11.448;2023-01-04T10:05:33;7.70;99.90
19813;DHT22;10066;48.108;11.448;2023-01-04T10:08:01;7.80;99.90
19813;DHT22;10066;48.108;11.448;2023-01-04T10:10:42;7.90;99.90
19813;DHT22;10066;48.108;11.448;2023-01-04T10:13:18;8.00;99.90
19813;DHT22;10066;48.108;11.448;2023-01-04T10:15:51;8.10;99.90
19813;DHT22;10066;48.108;11.448;2023-01-04T10:18:30;8.20;99.90
19813;DHT22;10066;48.108;11.448;2023-01-04T10:21:10;8.30;99.90
19813;DHT22;10066;48.108;11.448;2023-01-04T10:23:48;8.30;99.90
19813;DHT22;10066;48.108;11.448;2023-01-04T10:26:22;8.30;99.90
19813;DHT22;10066;48.108;11.448;2023-01-04T10:29:02;8.40;99.90
19813;DHT22;10066;48.108;11.448;2023-01-04T10:31:36;8.50;99.90
19813;DHT22;10066;48.108;11.448;2023-01-04T10:34:20;8.60;99.90
19813;DHT22;10066;48.108;11.448;2023-01-04T10:36:47;8.70;99.90
19813;DHT22;10066;48.108;11.448;2023-01-04T10:41:46;9.00;99.90
19813;DHT22;10066;48.108;11.448;2023-01-04T10:44:19;9.10;99.90
19813;DHT22;10066;48.108;11.448;2023-01-04T10:46:56;9.20;99.90
19813;DHT22;10066;48.108;11.448;2023-01-04T10:49:36;9.30;99.90
19813;DHT22;10066;48.108;11.448;2023-01-04T10:52:09;9.40;99.90
19813;DHT22;10066;48.108;11.448;2023-01-04T10:54:39;9.50;99.90
19813;DHT22;10066;48.108;11.448;2023-01-04T10:57:13;9.60;99.90
19813;DHT22;10066;48.108;11.448;2023-01-04T10:59:45;9.70;99.90
19813;DHT22;10066;48.108;11.448;2023-01-04T11:02:18;9.70;99.90
19813;DHT22;10066;48.108;11.448;2023-01-04T11:04:53;9.70;99.90
19813;DHT22;10066;48.108;11.448;2023-01-04T11:07:26;9.70;99.90
19813;DHT22;10066;48.108;11.448;2023-01-04T11:09:58;9.70;99.90
19813;DHT22;10066;48.108;11.448;2023-01-04T11:12:28;9.70;99.90
19813;DHT22;10066;48.108;11.448;2023-01-04T11:14:55;9.70;99.90
19813;DHT22;10066;48.108;11.448;2023-01-04T11:17:23;9.60;99.90
19813;DHT22;10066;48.108;11.448;2023-01-04T11:19:52;9.60;99.90
19813;DHT22;10066;48.108;11.448;2023-01-04T11:22:24;9.60;99.90
19813;DHT22;10066;48.108;11.448;2023-01-04T11:24:56;9.60;99.90
19813;DHT22;10066;48.108;11.448;2023-01-04T11:27:31;9.60;99.90
19813;DHT22;10066;48.108;11.448;2023-01-04T11:30:03;9.60;99.90
19813;DHT22;10066;48.108;11.448;2023-01-04T11:32:38;9.60;99.90
19813;DHT22;10066;48.108;11.448;2023-01-04T11:35:07;9.60;99.90
19813;DHT22;10066;48.108;11.448;2023-01-04T11:37:35;9.60;99.90
19813;DHT22;10066;48.108;11.448;2023-01-04T11:40:16;9.70;99.90
19813;DHT22;10066;48.108;11.448;2023-01-04T11:42:43;9.70;99.90
19813;DHT22;10066;48.108;11.448;2023-01-04T11:45:17;9.60;99.90
19813;DHT22;10066;48.108;11.448;2023-01-04T11:47:49;9.60;99.90
19813;DHT22;10066;48.108;11.448;2023-01-04T11:50:49;9.70;99.90
19813;DHT22;10066;48.108;11.448;2023-01-04T11:53:23;9.80;99.90
19813;DHT22;10066;48.108;11.448;2023-01-04T11:55:51;9.80;99.90
19813;DHT22;10066;48.108;11.448;2023-01-04T11:58:27;9.90;99.90
19813;DHT22;10066;48.108;11.448;2023-01-04T12:00:56;9.90;99.90
19813;DHT22;10066;48.108;11.448;2023-01-04T12:03:26;10.00;99.90
19813;DHT22;10066;48.108;11.448;2023-01-04T12:05:55;10.10;99.90
19813;DHT22;10066;48.108;11.448;2023-01-04T12:08:28;10.10;99.90
19813;DHT22;10066;48.108;11.448;2023-01-04T12:10:57;10.20;99.90
19813;DHT22;10066;48.108;11.448;2023-01-04T12:13:24;10.20;99.90
19813;DHT22;10066;48.108;11.448;2023-01-04T12:16:00;10.30;99.90
19813;DHT22;10066;48.108;11.448;2023-01-04T12:18:33;10.40;99.90
19813;DHT22;10066;48.108;11.448;2023-01-04T12:21:02;10.30;99.90
19813;DHT22;10066;48.108;11.448;2023-01-04T12:23:29;10.50;99.90
19813;DHT22;10066;48.108;11.448;2023-01-04T12:25:56;10.50;99.90
19813;DHT22;10066;48.108;11.448;2023-01-04T12:28:31;10.60;99.90
19813;DHT22;10066;48.108;11.448;2023-01-04T12:34:40;10.60;99.90
19813;DHT22;10066;48.108;11.448;2023-01-04T12:37:10;10.60;99.90
19813;DHT22;10066;48.108;11.448;2023-01-04T12:39:40;10.60;99.90
19813;DHT22;10066;48.108;11.448;2023-01-04T12:42:13;10.60;99.90
19813;DHT22;10066;48.108;11.448;2023-01-04T12:45:19;10.60;99.90
19813;DHT22;10066;48.108;11.448;2023-01-04T12:47:51;10.60;99.90
19813;DHT22;10066;48.108;11.448;2023-01-04T12:53:58;10.50;99.90
19813;DHT22;10066;48.108;11.448;2023-01-04T12:59:32;10.50;99.90
19813;DHT22;10066;48.108;11.448;2023-01-04T13:02:17;10.50;99.90
19813;DHT22;10066;48.108;11.448;2023-01-04T13:04:45;10.60;99.90
19813;DHT22;10066;48.108;11.448;2023-01-04T13:07:19;10.60;99.90
19813;DHT22;10066;48.108;11.448;2023-01-04T13:09:53;10.60;99.90
19813;DHT22;10066;48.108;11.448;2023-01-04T13:12:40;10.60;99.90
19813;DHT22;10066;48.108;11.448;2023-01-04T13:15:17;10.70;99.90
19813;DHT22;10066;48.108;11.448;2023-01-04T13:17:46;10.80;99.90
19813;DHT22;10066;48.108;11.448;2023-01-04T13:20:16;10.80;99.90
19813;DHT22;10066;48.108;11.448;2023-01-04T13:22:49;10.80;99.90
19813;DHT22;10066;48.108;11.448;2023-01-04T13:25:19;10.80;99.90
19813;DHT22;10066;48.108;11.448;2023-01-04T13:27:58;10.80;99.90
19813;DHT22;10066;48.108;11.448;2023-01-04T13:30:30;10.80;99.90
19813;DHT22;10066;48.108;11.448;2023-01-04T13:32:58;10.90;99.90
19813;DHT22;10066;48.108;11.448;2023-01-04T13:35:25;11.00;99.90
19813;DHT22;10066;48.108;11.448;2023-01-04T13:37:52;11.00;99.90
19813;DHT22;10066;48.108;11.448;2023-01-04T13:40:23;11.00;99.90
19813;DHT22;10066;48.108;11.448;2023-01-04T13:43:02;11.10;99.90
19813;DHT22;10066;48.108;11.448;2023-01-04T13:45:45;11.10;99.90
19813;DHT22;10066;48.108;11.448;2023-01-04T13:48:18;11.10;99.90
19813;DHT22;10066;48.108;11.448;2023-01-04T13:50:58;11.10;99.90
19813;DHT22;10066;48.108;11.448;2023-01-04T13:53:27;11.10;99.90
19813;DHT22;10066;48.108;11.448;2023-01-04T13:55:56;11.10;99.90
19813;DHT22;10066;48.108;11.448;2023-01-04T13:58:24;11.10;99.90
19813;DHT22;10066;48.108;11.448;2023-01-04T14:00:54;11.20;99.90
19813;DHT22;10066;48.108;11.448;2023-01-04T14:03:29;11.10;99.90
19813;DHT22;10066;48.108;11.448;2023-01-04T14:06:12;11.10;99.90
19813;DHT22;10066;48.108;11.448;2023-01-04T14:08:43;11.10;99.90
19813;DHT22;10066;48.108;11.448;2023-01-04T14:11:18;11.10;99.90
19813;DHT22;10066;48.108;11.448;2023-01-04T14:13:59;11.10;99.90
19813;DHT22;10066;48.108;11.448;2023-01-04T14:16:26;11.00;99.90
19813;DHT22;10066;48.108;11.448;2023-01-04T14:18:53;11.00;99.90
19813;DHT22;10066;48.108;11.448;2023-01-04T14:21:32;11.00;99.90
19813;DHT22;10066;48.108;11.448;2023-01-04T14:24:00;11.00;99.90
19813;DHT22;10066;48.108;11.448;2023-01-04T14:26:32;11.00;99.90
19813;DHT22;10066;48.108;11.448;2023-01-04T14:29:21;11.00;99.90
19813;DHT22;10066;48.108;11.448;2023-01-04T14:31:49;11.00;99.90
19813;DHT22;10066;48.108;11.448;2023-01-04T14:34:16;11.00;99.90
19813;DHT22;10066;48.108;11.448;2023-01-04T14:36:43;11.00;99.90
19813;DHT22;10066;48.108;11.448;2023-01-04T14:39:30;11.00;99.90
19813;DHT22;10066;48.108;11.448;2023-01-04T14:42:00;11.00;99.10
19813;DHT22;10066;48.108;11.448;2023-01-04T14:44:29;11.00;99.60
19813;DHT22;10066;48.108;11.448;2023-01-04T14:46:59;11.00;99.90
19813;DHT22;10066;48.108;11.448;2023-01-04T14:49:30;11.00;99.90
19813;DHT22;10066;48.108;11.448;2023-01-04T14:51:59;10.90;99.90
19813;DHT22;10066;48.108;11.448;2023-01-04T14:54:27;10.90;99.90
19813;DHT22;10066;48.108;11.448;2023-01-04T14:56:56;10.90;99.90
19813;DHT22;10066;48.108;11.448;2023-01-04T14:59:25;10.90;99.90
19813;DHT22;10066;48.108;11.448;2023-01-04T15:01:54;10.90;99.20
19813;DHT22;10066;48.108;11.448;2023-01-04T15:04:22;10.90;99.90
19813;DHT22;10066;48.108;11.448;2023-01-04T15:06:51;10.80;99.90
19813;DHT22;10066;48.108;11.448;2023-01-04T15:09:19;10.80;99.60
19813;DHT22;10066;48.108;11.448;2023-01-04T15:11:46;10.80;99.90
19813;DHT22;10066;48.108;11.448;2023-01-04T15:14:13;10.80;99.70
19813;DHT22;10066;48.108;11.448;2023-01-04T15:16:42;10.80;99.40
19813;DHT22;10066;48.108;11.448;2023-01-04T15:19:09;10.80;99.90
19813;DHT22;10066;48.108;11.448;2023-01-04T15:21:36;10.80;99.60
19813;DHT22;10066;48.108;11.448;2023-01-04T15:24:03;10.80;99.80
19813;DHT22;10066;48.108;11.448;2023-01-04T15:26:30;10.70;99.90
19813;DHT22;10066;48.108;11.448;2023-01-04T15:28:57;10.70;99.90
19813;DHT22;10066;48.108;11.448;2023-01-04T15:31:24;10.70;99.90
19813;DHT22;10066;48.108;11.448;2023-01-04T15:33:52;10.60;99.90
19813;DHT22;10066;48.108;11.448;2023-01-04T15:36:19;10.50;99.90
19813;DHT22;10066;48.108;11.448;2023-01-04T15:38:46;10.50;99.90
19813;DHT22;10066;48.108;11.448;2023-01-04T15:41:15;10.50;99.90
19813;DHT22;10066;48.108;11.448;2023-01-04T15:43:56;10.50;99.90
19813;DHT22;10066;48.108;11.448;2023-01-04T15:46:23;10.40;99.90
19813;DHT22;10066;48.108;11.448;2023-01-04T15:48:51;10.40;99.90
19813;DHT22;10066;48.108;11.448;2023-01-04T15:51:18;10.40;99.90
19813;DHT22;10066;48.108;11.448;2023-01-04T15:53:49;10.40;99.90
19813;DHT22;10066;48.108;11.448;2023-01-04T15:56:16;10.40;99.90
19813;DHT22;10066;48.108;11.448;2023-01-04T15:58:43;10.30;99.90
19813;DHT22;10066;48.108;11.448;2023-01-04T16:01:11;10.30;99.90
19813;DHT22;10066;48.108;11.448;2023-01-04T16:03:39;10.30;99.90
19813;DHT22;10066;48.108;11.448;2023-01-04T16:06:09;10.20;99.90
19813;DHT22;10066;48.108;11.448;2023-01-04T16:08:37;10.20;99.90
19813;DHT22;10066;48.108;11.448;2023-01-04T16:11:10;10.10;99.90
19813;DHT22;10066;48.108;11.448;2023-01-04T16:13:37;10.10;99.90